Time,TemperatureF,DewpointF,PressureIn,WindDirection,WindDirectionDegrees,WindSpeedMPH,WindSpeedGustMPH,Humidity,HourlyPrecipIn,Conditions,Clouds,dailyrainin,SoftwareType,DateUTC
2013-12-10 00:03:00,57.4,56.3,30.02,SSE,159,3.0,3.0,96,0.00,,,0.00,Wunderground v.1.15,2013-12-10 05:03:00,
2013-12-10 00:09:00,57.3,56.2,30.02,SSE,163,2.0,2.0,96,0.00,,,0.00,Wunderground v.1.15,2013-12-10 05:09:00,
2013-12-10 00:24:00,57.0,55.9,30.01,SE,138,3.0,5.0,96,0.00,,,0.00,Wunderground v.1.15,2013-12-10 05:24:00,
2013-12-10 00:39:00,56.8,55.7,30.00,SE,143,2.0,2.0,96,0.00,,,0.00,Wunderground v.1.15,2013-12-10 05:39:00,
2013-12-10 00:43:00,56.8,55.7,30.00,SE,143,1.0,2.0,96,0.00,,,0.00,Wunderground v.1.15,2013-12-10 05:43:00,
2013-12-10 00:53:00,56.7,55.6,30.00,SE,143,0.0,0.0,96,0.00,,,0.00,Wunderground v.1.15,2013-12-10 05:53:00,
2013-12-10 01:09:00,56.7,55.6,29.99,SE,143,0.0,0.0,96,0.00,,,0.00,Wunderground v.1.15,2013-12-10 06:09:00,
2013-12-10 01:23:00,56.6,55.5,29.99,SE,143,0.0,0.0,96,0.00,,,0.00,Wunderground v.1.15,2013-12-10 06:23:00,
2013-12-10 01:34:00,56.6,55.5,29.98,SE,143,0.0,0.0,96,0.00,,,0.00,Wunderground v.1.15,2013-12-10 06:34:00,
2013-12-10 01:49:00,56.6,55.5,29.98,SE,143,0.0,0.0,96,0.00,,,0.00,Wunderground v.1.15,2013-12-10 06:49:00,
2013-12-10 01:53:00,56.6,55.5,29.98,SE,143,0.0,0.0,96,0.00,,,0.00,Wunderground v.1.15,2013-12-10 06:53:00,
2013-12-10 02:03:00,56.7,55.6,29.98,SE,143,0.0,2.0,96,0.00,,,0.00,Wunderground v.1.15,2013-12-10 07:03:00,
2013-12-10 02:14:00,56.8,56.0,29.97,SE,140,3.0,3.0,97,0.00,,,0.00,Wunderground v.1.15,2013-12-10 07:14:00,
2013-12-10 02:29:00,57.2,56.4,29.97,SSE,153,1.0,2.0,97,0.00,,,0.00,Wunderground v.1.15,2013-12-10 07:29:00,
2013-12-10 02:39:00,57.7,56.9,29.97,SSE,165,2.0,2.0,97,0.00,,,0.00,Wunderground v.1.15,2013-12-10 07:39:00,
2013-12-10 02:54:00,58.6,57.8,29.96,SSW,192,3.0,5.0,97,0.00,,,0.00,Wunderground v.1.15,2013-12-10 07:54:00,
2013-12-10 03:09:00,59.5,58.6,29.96,SSW,200,4.0,5.0,97,0.00,,,0.00,Wunderground v.1.15,2013-12-10 08:09:00,
2013-12-10 03:23:00,60.3,59.4,29.96,SW,230,5.0,5.0,97,0.00,,,0.00,Wunderground v.1.15,2013-12-10 08:23:00,
2013-12-10 03:34:00,60.9,60.0,29.96,WSW,237,5.0,5.0,97,0.00,,,0.01,Wunderground v.1.15,2013-12-10 08:34:00,
2013-12-10 03:49:00,61.3,60.4,29.95,SW,232,5.0,5.0,97,0.00,,,0.01,Wunderground v.1.15,2013-12-10 08:49:00,
2013-12-10 04:04:00,61.5,60.6,29.95,WSW,246,5.0,5.0,97,0.00,,,0.01,Wunderground v.1.15,2013-12-10 09:04:00,
2013-12-10 04:19:00,61.5,60.6,29.94,SW,228,3.0,3.0,97,0.00,,,0.01,Wunderground v.1.15,2013-12-10 09:19:00,
2013-12-10 04:33:00,61.7,60.8,29.94,SW,225,3.0,3.0,97,0.00,,,0.01,Wunderground v.1.15,2013-12-10 09:33:00,
2013-12-10 04:44:00,61.7,60.8,29.94,SW,225,3.0,3.0,97,0.00,,,0.01,Wunderground v.1.15,2013-12-10 09:44:00,
2013-12-10 04:59:00,62.0,61.1,29.94,SW,225,3.0,6.0,97,0.00,,,0.01,Wunderground v.1.15,2013-12-10 09:59:00,
2013-12-10 05:13:00,62.4,61.5,29.94,SW,225,3.0,3.0,97,0.00,,,0.01,Wunderground v.1.15,2013-12-10 10:13:00,
2013-12-10 05:24:00,62.8,61.9,29.94,SW,226,3.0,3.0,97,0.00,,,0.01,Wunderground v.1.15,2013-12-10 10:24:00,
2013-12-10 05:39:00,63.3,62.7,29.93,SW,223,4.0,5.0,98,0.00,,,0.01,Wunderground v.1.15,2013-12-10 10:39:00,
2013-12-10 05:53:00,63.6,62.7,29.93,SW,223,5.0,5.0,97,0.00,,,0.01,Wunderground v.1.15,2013-12-10 10:53:00,
2013-12-10 06:08:00,63.8,62.9,29.94,WSW,248,3.0,4.0,97,0.00,,,0.01,Wunderground v.1.15,2013-12-10 11:08:00,
2013-12-10 06:19:00,63.8,62.9,29.94,SW,229,3.0,3.0,97,0.00,,,0.01,Wunderground v.1.15,2013-12-10 11:19:00,
2013-12-10 06:34:00,63.9,63.0,29.94,SW,228,3.0,6.0,97,0.00,,,0.01,Wunderground v.1.15,2013-12-10 11:34:00,
2013-12-10 06:48:00,64.2,63.3,29.93,SW,218,6.0,7.0,97,0.00,,,0.01,Wunderground v.1.15,2013-12-10 11:48:00,
2013-12-10 06:59:00,64.4,63.5,29.93,SW,234,6.0,6.0,97,0.00,,,0.01,Wunderground v.1.15,2013-12-10 11:59:00,
2013-12-10 07:08:00,64.6,64.0,29.93,SW,222,7.0,7.0,98,0.00,,,0.01,Wunderground v.1.15,2013-12-10 12:08:00,
2013-12-10 07:19:00,64.7,63.8,29.93,WSW,251,6.0,6.0,97,0.00,,,0.01,Wunderground v.1.15,2013-12-10 12:19:00,
2013-12-10 07:34:00,64.9,64.0,29.93,SW,225,7.0,9.0,97,0.00,,,0.01,Wunderground v.1.15,2013-12-10 12:34:00,
2013-12-10 07:48:00,65.0,64.1,29.93,SW,234,7.0,9.0,97,0.00,,,0.01,Wunderground v.1.15,2013-12-10 12:48:00,
2013-12-10 07:59:00,65.2,64.3,29.93,WSW,248,7.0,7.0,97,0.00,,,0.01,Wunderground v.1.15,2013-12-10 12:59:00,
2013-12-10 08:14:00,65.4,64.5,29.93,SW,232,7.0,9.0,97,0.00,,,0.01,Wunderground v.1.15,2013-12-10 13:14:00,
2013-12-10 08:29:00,65.7,64.8,29.93,SW,236,8.0,9.0,97,0.00,,,0.01,Wunderground v.1.15,2013-12-10 13:29:00,
2013-12-10 08:43:00,66.2,65.3,29.92,SW,221,7.0,7.0,97,0.00,,,0.01,Wunderground v.1.15,2013-12-10 13:43:00,
2013-12-10 08:54:00,66.7,65.8,29.92,SW,221,6.0,8.0,97,0.00,,,0.01,Wunderground v.1.15,2013-12-10 13:54:00,
2013-12-10 09:03:00,66.9,66.0,29.92,WSW,251,7.0,8.0,97,0.00,,,0.01,Wunderground v.1.15,2013-12-10 14:03:00,
2013-12-10 09:14:00,67.2,66.0,29.92,WSW,257,7.0,7.0,96,0.00,,,0.01,Wunderground v.1.15,2013-12-10 14:14:00,
2013-12-10 09:28:00,67.8,66.6,29.92,WSW,246,9.0,9.0,96,0.00,,,0.01,Wunderground v.1.15,2013-12-10 14:28:00,
2013-12-10 09:43:00,68.2,66.7,29.92,SW,222,8.0,8.0,95,0.00,,,0.01,Wunderground v.1.15,2013-12-10 14:43:00,
2013-12-10 09:54:00,68.5,66.7,29.93,West,262,7.0,7.0,94,0.00,,,0.01,Wunderground v.1.15,2013-12-10 14:54:00,
2013-12-10 10:09:00,68.7,66.6,29.94,WSW,244,7.0,9.0,93,0.00,,,0.01,Wunderground v.1.15,2013-12-10 15:09:00,
2013-12-10 10:24:00,68.9,66.2,29.94,WSW,240,10.0,10.0,91,0.00,,,0.01,Wunderground v.1.15,2013-12-10 15:24:00,
2013-12-10 10:38:00,69.3,66.6,29.93,WSW,244,11.0,11.0,91,0.00,,,0.01,Wunderground v.1.15,2013-12-10 15:38:00,
2013-12-10 10:49:00,69.7,66.6,29.93,WSW,251,9.0,13.0,90,0.00,,,0.01,Wunderground v.1.15,2013-12-10 15:49:00,
2013-12-10 11:04:00,70.1,66.7,29.92,West,271,9.0,9.0,89,0.00,,,0.01,Wunderground v.1.15,2013-12-10 16:04:00,
2013-12-10 11:19:00,70.7,67.0,29.90,WSW,240,8.0,11.0,88,0.00,,,0.01,Wunderground v.1.15,2013-12-10 16:19:00,
2013-12-10 11:34:00,71.9,67.5,29.90,SW,235,10.0,13.0,86,0.00,,,0.01,Wunderground v.1.15,2013-12-10 16:34:00,
2013-12-10 11:48:00,72.3,67.5,29.89,SW,216,12.0,12.0,85,0.00,,,0.01,Wunderground v.1.15,2013-12-10 16:48:00,
2013-12-10 11:59:00,72.6,67.1,29.89,SSW,211,12.0,12.0,83,0.00,,,0.01,Wunderground v.1.15,2013-12-10 16:59:00,
2013-12-10 12:14:00,72.6,67.5,29.88,SW,229,11.0,11.0,84,0.00,,,0.01,Wunderground v.1.15,2013-12-10 17:14:00,
2013-12-10 12:29:00,72.7,67.2,29.88,West,268,11.0,11.0,83,0.00,,,0.01,Wunderground v.1.15,2013-12-10 17:29:00,
2013-12-10 12:43:00,72.2,66.7,29.91,NW,307,10.0,12.0,83,0.81,,,0.08,Wunderground v.1.15,2013-12-10 17:43:00,
2013-12-10 12:58:00,66.0,62.7,29.91,West,274,11.0,13.0,89,0.05,,,0.14,Wunderground v.1.15,2013-12-10 17:58:00,
2013-12-10 13:14:00,65.6,62.9,29.91,West,275,7.0,7.0,91,0.00,,,0.14,Wunderground v.1.15,2013-12-10 18:14:00,
2013-12-10 13:28:00,65.7,63.3,29.92,West,281,7.0,7.0,92,0.00,,,0.14,Wunderground v.1.15,2013-12-10 18:28:00,
2013-12-10 13:39:00,65.9,63.2,29.92,West,277,7.0,7.0,91,0.00,,,0.14,Wunderground v.1.15,2013-12-10 18:39:00,
2013-12-10 13:54:00,66.2,61.9,29.92,West,273,8.0,17.0,86,0.00,,,0.14,Wunderground v.1.15,2013-12-10 18:54:00,
2013-12-10 14:09:00,65.9,59.9,29.92,WNW,295,11.0,11.0,81,0.00,,,0.14,Wunderground v.1.15,2013-12-10 19:09:00,
2013-12-10 14:24:00,65.8,60.2,29.93,West,277,7.0,7.0,82,0.00,,,0.14,Wunderground v.1.15,2013-12-10 19:24:00,
2013-12-10 14:38:00,66.0,60.3,29.94,WNW,295,6.0,9.0,82,0.00,,,0.14,Wunderground v.1.15,2013-12-10 19:38:00,
2013-12-10 14:53:00,66.8,59.0,29.95,WNW,286,9.0,9.0,76,0.00,,,0.14,Wunderground v.1.15,2013-12-10 19:53:00,
2013-12-10 15:04:00,66.8,58.2,29.96,North,349,9.0,9.0,74,0.00,,,0.14,Wunderground v.1.15,2013-12-10 20:04:00,
2013-12-10 15:19:00,66.0,57.5,29.98,NNW,330,9.0,9.0,74,0.00,,,0.14,Wunderground v.1.15,2013-12-10 20:19:00,
2013-12-10 15:34:00,66.2,57.7,29.98,WNW,302,7.0,7.0,74,0.00,,,0.15,Wunderground v.1.15,2013-12-10 20:34:00,
2013-12-10 15:48:00,65.4,57.3,30.00,NNE,32,8.0,8.0,75,0.00,,,0.15,Wunderground v.1.15,2013-12-10 20:48:00,
2013-12-10 15:59:00,62.0,55.1,30.02,NNW,346,9.0,15.0,78,0.00,,,0.15,Wunderground v.1.15,2013-12-10 20:59:00,
2013-12-10 16:14:00,60.2,54.3,30.03,NNW,338,8.0,10.0,81,0.00,,,0.15,Wunderground v.1.15,2013-12-10 21:14:00,
2013-12-10 16:29:00,58.9,52.7,30.05,North,5,9.0,10.0,80,0.00,,,0.15,Wunderground v.1.15,2013-12-10 21:29:00,
2013-12-10 16:44:00,57.6,51.5,30.07,North,5,9.0,9.0,80,0.00,,,0.15,Wunderground v.1.15,2013-12-10 21:44:00,
2013-12-10 16:58:00,56.8,51.4,30.08,NNE,13,7.0,7.0,82,0.00,,,0.15,Wunderground v.1.15,2013-12-10 21:58:00,
2013-12-10 17:13:00,55.6,49.9,30.10,North,5,10.0,10.0,81,0.00,,,0.15,Wunderground v.1.15,2013-12-10 22:13:00,
2013-12-10 17:24:00,54.6,49.2,30.11,NE,42,9.0,9.0,82,0.00,,,0.15,Wunderground v.1.15,2013-12-10 22:24:00,
2013-12-10 17:39:00,53.2,48.2,30.12,NE,34,7.0,7.0,83,0.00,,,0.15,Wunderground v.1.15,2013-12-10 22:39:00,
2013-12-10 17:54:00,52.3,47.0,30.13,NNE,25,6.0,6.0,82,0.00,,,0.15,Wunderground v.1.15,2013-12-10 22:54:00,
2013-12-10 18:03:00,52.1,46.8,30.14,NNE,13,5.0,5.0,82,0.00,,,0.15,Wunderground v.1.15,2013-12-10 23:03:00,
2013-12-10 18:13:00,51.7,46.4,30.14,North,355,5.0,5.0,82,0.00,,,0.15,Wunderground v.1.15,2013-12-10 23:13:00,
2013-12-10 18:24:00,51.3,46.0,30.15,NNE,20,5.0,5.0,82,0.00,,,0.15,Wunderground v.1.15,2013-12-10 23:24:00,
2013-12-10 18:39:00,51.0,45.7,30.16,NNE,30,4.0,4.0,82,0.00,,,0.15,Wunderground v.1.15,2013-12-10 23:39:00,
2013-12-10 18:54:00,50.5,45.5,30.17,NNE,30,4.0,4.0,83,0.00,,,0.15,Wunderground v.1.15,2013-12-10 23:54:00,
2013-12-10 19:09:00,50.0,45.4,30.17,NNE,22,4.0,5.0,84,0.00,,,0.15,Wunderground v.1.15,2013-12-11 00:09:00,
2013-12-10 19:23:00,49.5,45.2,30.18,NE,38,4.0,4.0,85,0.00,,,0.15,Wunderground v.1.15,2013-12-11 00:23:00,
2013-12-10 19:38:00,49.0,45.0,30.19,NNE,30,3.0,3.0,86,0.00,,,0.15,Wunderground v.1.15,2013-12-11 00:38:00,
2013-12-10 19:49:00,48.8,44.8,30.19,NNE,22,3.0,3.0,86,0.00,,,0.15,Wunderground v.1.15,2013-12-11 00:49:00,
2013-12-10 20:04:00,48.4,44.7,30.20,NNE,22,1.0,1.0,87,0.00,,,0.15,Wunderground v.1.15,2013-12-11 01:04:00,
2013-12-10 20:19:00,47.8,44.4,30.21,NNE,22,0.0,0.0,88,0.00,,,0.15,Wunderground v.1.15,2013-12-11 01:19:00,
2013-12-10 20:34:00,47.2,43.8,30.21,NNE,22,0.0,1.0,88,0.00,,,0.15,Wunderground v.1.15,2013-12-11 01:34:00,
2013-12-10 20:44:00,46.9,43.8,30.22,NNE,22,1.0,1.0,89,0.00,,,0.15,Wunderground v.1.15,2013-12-11 01:44:00,
2013-12-10 20:59:00,46.4,43.3,30.22,NNE,22,0.0,1.0,89,0.00,,,0.15,Wunderground v.1.15,2013-12-11 01:59:00,
2013-12-10 21:14:00,46.0,43.2,30.23,NNE,22,1.0,1.0,90,0.00,,,0.15,Wunderground v.1.15,2013-12-11 02:14:00,
2013-12-10 21:29:00,45.7,43.2,30.23,NNE,22,0.0,0.0,91,0.00,,,0.15,Wunderground v.1.15,2013-12-11 02:29:00,
2013-12-10 21:44:00,45.3,42.8,30.24,NNE,22,0.0,0.0,91,0.00,,,0.15,Wunderground v.1.15,2013-12-11 02:44:00,
2013-12-10 21:58:00,45.0,42.5,30.25,NNE,22,0.0,0.0,91,0.00,,,0.15,Wunderground v.1.15,2013-12-11 02:58:00,
2013-12-10 22:14:00,44.7,42.2,30.26,NNE,22,0.0,0.0,91,0.00,,,0.15,Wunderground v.1.15,2013-12-11 03:14:00,
2013-12-10 22:29:00,44.3,42.1,30.26,NNE,22,0.0,0.0,92,0.00,,,0.15,Wunderground v.1.15,2013-12-11 03:29:00,
2013-12-10 22:39:00,44.0,41.8,30.26,NNE,22,0.0,0.0,92,0.00,,,0.15,Wunderground v.1.15,2013-12-11 03:39:00,
2013-12-10 22:54:00,43.8,41.6,30.27,NNE,22,1.0,2.0,92,0.00,,,0.15,Wunderground v.1.15,2013-12-11 03:54:00,
2013-12-10 23:03:00,43.9,42.0,30.28,NNE,22,2.0,2.0,93,0.00,,,0.15,Wunderground v.1.15,2013-12-11 04:03:00,
2013-12-10 23:13:00,44.0,42.1,30.29,NNE,24,3.0,3.0,93,0.00,,,0.15,Wunderground v.1.15,2013-12-11 04:13:00,
2013-12-10 23:28:00,43.9,41.7,30.29,NE,36,4.0,4.0,92,0.00,,,0.15,Wunderground v.1.15,2013-12-11 04:28:00,
2013-12-10 23:39:00,43.5,41.3,30.29,NNE,19,4.0,5.0,92,0.00,,,0.15,Wunderground v.1.15,2013-12-11 04:39:00,
2013-12-10 23:54:00,43.1,40.4,30.29,NE,48,3.0,3.0,90,0.00,,,0.15,Wunderground v.1.15,2013-12-11 04:54:00,